Time;durP1;ratioP1;P1;durP2;ratioP2;P2;SDS_P1;SDS_P2;PMS_P1;PMS_P2;Temp;Humidity;BMP_temperature;BMP_pressure;BME280_temperature;BME280_humidity;BME280_pressure;Samples;Min_cycle;Max_cycle;Signal;HPM_P1;HPM_P2
2021/03/06 00:02:19;;;;;;;2.72;2.53;;;4.10;70.80;;;;;;5033219;28;20489;-61
2021/03/06 00:04:45;;;;;;;3.55;2.70;;;4.20;70.90;;;;;;5028108;28;20029;-60
2021/03/06 00:07:11;;;;;;;2.53;2.33;;;4.20;70.80;;;;;;5023610;28;20037;-59
2021/03/06 00:09:37;;;;;;;3.50;2.50;;;4.20;70.80;;;;;;5032925;28;20029;-61
2021/03/06 00:12:06;;;;;;;3.05;2.63;;;4.20;70.70;;;;;;5033692;28;20022;-60
2021/03/06 00:14:32;;;;;;;3.03;2.53;;;4.20;70.50;;;;;;5030233;28;20022;-60
2021/03/06 00:16:58;;;;;;;3.30;2.65;;;4.30;70.50;;;;;;5038795;28;20499;-60
2021/03/06 00:19:24;;;;;;;2.80;2.20;;;4.30;70.30;;;;;;5033492;28;20022;-60
2021/03/06 00:21:50;;;;;;;4.55;2.30;;;4.30;70.30;;;;;;5032926;28;20017;-60
2021/03/06 00:24:16;;;;;;;2.70;2.30;;;4.30;69.50;;;;;;5033731;28;20017;-60
2021/03/06 00:26:42;;;;;;;2.67;2.40;;;4.40;69.30;;;;;;5032377;28;20059;-61
2021/03/06 00:29:07;;;;;;;3.50;2.38;;;4.40;69.10;;;;;;5033587;28;20037;-60
2021/03/06 00:31:36;;;;;;;4.38;3.05;;;4.40;68.80;;;;;;5033204;28;20177;-59
2021/03/06 00:34:02;;;;;;;2.88;2.50;;;4.40;69.10;;;;;;5035132;28;20030;-60
2021/03/06 00:36:28;;;;;;;4.32;2.55;;;4.40;68.90;;;;;;5030491;28;20079;-61
2021/03/06 00:38:54;;;;;;;3.05;2.38;;;4.40;69.00;;;;;;5029912;28;20021;-61
2021/03/06 00:41:19;;;;;;;2.50;2.30;;;4.40;68.50;;;;;;5033372;28;20034;-61
2021/03/06 00:43:45;;;;;;;2.78;1.90;;;4.40;68.40;;;;;;5033194;28;20468;-59
2021/03/06 00:46:11;;;;;;;2.08;1.85;;;4.40;66.70;;;;;;5024369;28;20029;-59
2021/03/06 00:48:36;;;;;;;2.08;1.95;;;4.30;66.00;;;;;;5031254;28;20046;-60
2021/03/06 00:51:03;;;;;;;1.90;1.80;;;4.40;65.70;;;;;;5033439;28;20034;-60
2021/03/06 00:53:28;;;;;;;2.25;2.05;;;4.40;65.20;;;;;;5028959;28;20091;-60
2021/03/06 00:55:54;;;;;;;2.10;2.00;;;4.40;65.00;;;;;;5031563;28;20108;-60
2021/03/06 00:58:20;;;;;;;2.00;1.90;;;4.50;64.50;;;;;;5032961;28;20040;-59
2021/03/06 01:00:46;;;;;;;2.55;2.35;;;4.50;64.20;;;;;;5033221;28;20057;-60
2021/03/06 01:03:12;;;;;;;1.80;1.70;;;4.50;63.80;;;;;;5030805;28;20030;-61
2021/03/06 01:05:37;;;;;;;1.60;1.60;;;4.60;63.70;;;;;;5041869;28;20032;-59
2021/03/06 01:08:06;;;;;;;1.88;1.75;;;4.60;63.00;;;;;;5025227;28;20038;-60
2021/03/06 01:10:35;;;;;;;1.77;1.67;;;4.60;62.80;;;;;;5028884;28;20125;-60
2021/03/06 01:13:02;;;;;;;1.83;1.73;;;4.70;62.40;;;;;;5035254;28;20049;-59
2021/03/06 01:15:27;;;;;;;2.17;1.98;;;4.70;62.40;;;;;;5031315;28;20034;-60
2021/03/06 01:17:53;;;;;;;2.50;2.00;;;4.70;62.60;;;;;;5028016;28;20432;-61
2021/03/06 01:20:19;;;;;;;2.03;1.90;;;4.70;62.80;;;;;;5035283;28;20067;-61
2021/03/06 01:22:45;;;;;;;2.25;2.13;;;4.60;62.90;;;;;;5034029;28;20022;-60
2021/03/06 01:25:11;;;;;;;2.28;2.05;;;4.60;62.90;;;;;;5032711;28;20071;-59
2021/03/06 01:27:37;;;;;;;2.83;2.53;;;4.50;62.90;;;;;;5030368;28;20032;-60
2021/03/06 01:30:05;;;;;;;2.72;2.42;;;4.50;63.20;;;;;;5035203;28;20029;-60
2021/03/06 01:32:30;;;;;;;4.28;2.63;;;4.40;63.40;;;;;;5039188;28;20037;-59
2021/03/06 01:34:56;;;;;;;3.42;2.42;;;4.40;63.60;;;;;;5030699;28;20079;-59
2021/03/06 01:37:22;;;;;;;3.13;2.60;;;4.40;63.80;;;;;;5029797;28;20439;-61
2021/03/06 01:39:48;;;;;;;2.60;2.40;;;4.30;63.80;;;;;;5029455;28;20453;-60
2021/03/06 01:42:14;;;;;;;3.30;2.70;;;4.30;63.90;;;;;;5031657;28;20034;-62
2021/03/06 01:44:40;;;;;;;3.83;2.75;;;4.20;64.60;;;;;;5032383;28;20021;-61
2021/03/06 01:47:05;;;;;;;3.25;2.60;;;4.20;64.40;;;;;;5033761;28;20508;-60
2021/03/06 01:49:31;;;;;;;3.05;2.70;;;4.20;64.50;;;;;;5035964;28;20124;-61
2021/03/06 01:51:57;;;;;;;3.40;2.67;;;4.20;64.70;;;;;;5034267;28;20021;-61
2021/03/06 01:54:25;;;;;;;2.90;2.53;;;4.20;65.10;;;;;;5034847;28;20871;-61
2021/03/06 01:56:54;;;;;;;3.65;2.70;;;4.20;65.20;;;;;;5030054;28;20017;-60
2021/03/06 01:59:20;;;;;;;3.53;2.95;;;4.20;65.20;;;;;;5038528;28;20040;-59
2021/03/06 02:01:46;;;;;;;2.92;2.50;;;4.20;65.30;;;;;;5030880;28;20052;-60
2021/03/06 02:04:13;;;;;;;3.05;2.72;;;4.30;65.40;;;;;;5032219;28;20036;-59
2021/03/06 02:06:39;;;;;;;3.10;2.67;;;4.30;65.10;;;;;;5033146;28;20108;-61
2021/03/06 02:09:05;;;;;;;2.80;2.60;;;4.30;65.10;;;;;;5036774;28;20108;-60
2021/03/06 02:11:53;;;;;;;4.38;2.88;;;4.30;65.10;;;;;;5035090;28;20104;-60
2021/03/06 02:14:57;;;;;;;3.10;2.70;;;4.30;65.00;;;;;;5034604;28;20017;-60
2021/03/06 02:17:32;;;;;;;5.10;3.03;;;4.30;65.30;;;;;;5033343;28;20470;-60
2021/03/06 02:20:29;;;;;;;3.00;2.58;;;4.30;65.50;;;;;;5044924;28;20417;-60
2021/03/06 02:23:18;;;;;;;3.20;2.90;;;4.20;65.50;;;;;;5030619;28;20028;-59
2021/03/06 02:26:16;;;;;;;3.97;3.00;;;4.20;65.50;;;;;;5028136;28;20040;-60
2021/03/06 02:28:57;;;;;;;3.55;3.13;;;4.20;65.60;;;;;;5031700;28;20411;-61
2021/03/06 02:31:23;;;;;;;4.32;3.22;;;4.10;65.60;;;;;;5035708;28;20025;-60
2021/03/06 02:34:07;;;;;;;4.25;3.20;;;4.10;65.70;;;;;;5035639;28;20472;-60
2021/03/06 02:36:37;;;;;;;5.32;3.40;;;4.00;65.80;;;;;;5035298;28;20052;-60
2021/03/06 02:39:05;;;;;;;4.03;3.08;;;4.00;65.90;;;;;;5035255;28;20032;-60
2021/03/06 02:41:32;;;;;;;4.25;3.25;;;4.00;65.90;;;;;;5036213;28;20071;-60
2021/03/06 02:44:00;;;;;;;3.92;3.33;;;4.00;65.70;;;;;;5038270;28;20013;-60
2021/03/06 02:46:27;;;;;;;5.50;3.95;;;4.00;65.60;;;;;;5040652;28;20457;-60
2021/03/06 02:48:54;;;;;;;4.38;3.72;;;4.00;65.90;;;;;;5033473;28;20144;-60
2021/03/06 02:51:21;;;;;;;7.47;4.03;;;4.00;66.00;;;;;;5035628;28;20033;-60
2021/03/06 02:53:48;;;;;;;4.97;3.83;;;4.00;66.00;;;;;;5035213;28;20016;-59
2021/03/06 02:56:15;;;;;;;5.10;3.50;;;4.00;65.90;;;;;;5029103;28;20098;-59
2021/03/06 02:58:55;;;;;;;4.85;4.15;;;3.90;65.70;;;;;;5031453;28;20077;-60
2021/03/06 03:01:46;;;;;;;5.47;4.20;;;3.90;65.70;;;;;;5030961;28;20354;-60
2021/03/06 03:04:30;;;;;;;5.23;3.83;;;3.80;65.80;;;;;;5031237;28;20368;-59
2021/03/06 03:07:04;;;;;;;4.20;3.80;;;3.70;65.70;;;;;;5034227;28;20029;-58
2021/03/06 03:09:34;;;;;;;6.43;3.60;;;3.70;65.80;;;;;;5035213;28;20037;-59
2021/03/06 03:12:10;;;;;;;4.82;3.42;;;3.60;65.90;;;;;;5034156;28;20361;-60
2021/03/06 03:14:44;;;;;;;5.88;3.35;;;3.60;65.50;;;;;;5034584;28;20021;-60
2021/03/06 03:17:36;;;;;;;5.35;3.58;;;3.50;65.60;;;;;;5033333;28;20091;-60
2021/03/06 03:20:04;;;;;;;4.32;3.38;;;3.50;65.60;;;;;;5024689;28;20433;-59
2021/03/06 03:22:36;;;;;;;5.28;3.47;;;3.40;65.50;;;;;;5034554;28;20364;-60
2021/03/06 03:25:06;;;;;;;7.90;3.72;;;3.40;65.40;;;;;;5034772;28;20022;-60
2021/03/06 03:27:34;;;;;;;4.25;3.20;;;3.30;65.20;;;;;;5034154;28;20034;-59
2021/03/06 03:30:01;;;;;;;3.95;3.05;;;3.30;64.90;;;;;;5033588;28;20033;-60
2021/03/06 03:32:29;;;;;;;4.05;2.95;;;3.30;65.00;;;;;;5029735;28;20476;-59
2021/03/06 03:34:56;;;;;;;3.25;2.95;;;3.20;65.00;;;;;;5034976;28;20036;-61
2021/03/06 03:37:22;;;;;;;3.80;3.00;;;3.20;65.00;;;;;;5031564;28;20025;-59
2021/03/06 03:39:49;;;;;;;3.63;3.08;;;3.20;64.90;;;;;;5034133;28;20359;-60
2021/03/06 03:42:17;;;;;;;3.60;2.80;;;3.20;64.80;;;;;;5034620;28;20406;-60
2021/03/06 03:44:43;;;;;;;3.60;2.90;;;3.10;64.80;;;;;;5036095;28;20122;-60
2021/03/06 03:47:09;;;;;;;3.30;2.63;;;3.10;64.60;;;;;;5032330;28;20123;-60
2021/03/06 03:49:35;;;;;;;3.00;2.63;;;3.00;64.60;;;;;;5033933;28;20128;-60
2021/03/06 03:52:01;;;;;;;3.38;2.60;;;3.00;64.70;;;;;;5033936;28;20022;-60
2021/03/06 03:54:27;;;;;;;3.38;2.65;;;2.90;64.80;;;;;;5034797;28;20481;-60
2021/03/06 03:56:53;;;;;;;3.03;2.63;;;2.90;64.60;;;;;;5033877;28;20029;-58
2021/03/06 03:59:18;;;;;;;3.58;3.17;;;2.90;64.70;;;;;;5031175;28;20421;-60
2021/03/06 04:01:46;;;;;;;2.70;2.50;;;2.80;64.70;;;;;;5032526;28;20405;-60
2021/03/06 04:04:26;;;;;;;2.63;2.42;;;2.80;64.90;;;;;;5030958;28;20038;-62
2021/03/06 04:07:00;;;;;;;4.25;2.63;;;2.80;64.70;;;;;;5031026;28;20032;-60
2021/03/06 04:09:26;;;;;;;4.28;2.75;;;2.70;64.70;;;;;;5033650;28;20021;-60
2021/03/06 04:11:52;;;;;;;4.18;2.60;;;2.70;64.70;;;;;;5033882;28;20022;-60
2021/03/06 04:14:18;;;;;;;4.53;3.05;;;2.60;64.80;;;;;;5035200;28;20087;-60
2021/03/06 04:16:44;;;;;;;3.63;2.92;;;2.60;64.90;;;;;;5030910;28;20026;-58
2021/03/06 04:19:10;;;;;;;3.63;2.90;;;2.60;64.80;;;;;;5032058;28;20354;-59
2021/03/06 04:21:36;;;;;;;3.13;2.83;;;2.60;65.00;;;;;;5033481;28;20072;-59
2021/03/06 04:24:02;;;;;;;4.22;3.10;;;2.50;65.00;;;;;;5033848;28;20021;-60
2021/03/06 04:26:28;;;;;;;5.97;3.30;;;2.50;65.00;;;;;;5030046;28;20056;-60
2021/03/06 04:28:53;;;;;;;4.55;3.10;;;2.50;65.00;;;;;;5033529;28;20045;-60
2021/03/06 04:31:19;;;;;;;3.80;3.40;;;2.50;65.20;;;;;;5033213;28;20080;-60
2021/03/06 04:33:45;;;;;;;3.53;3.20;;;2.40;65.10;;;;;;5029752;28;20033;-58
2021/03/06 04:36:12;;;;;;;3.85;3.20;;;2.40;64.90;;;;;;5032445;28;20480;-58
2021/03/06 04:38:38;;;;;;;5.30;3.30;;;2.30;65.10;;;;;;5021556;28;20084;-59
2021/03/06 04:41:04;;;;;;;4.35;3.45;;;2.30;64.90;;;;;;5031775;28;20022;-60
2021/03/06 04:43:29;;;;;;;5.57;3.58;;;2.20;65.00;;;;;;5029890;28;20401;-60
2021/03/06 04:45:55;;;;;;;4.40;3.13;;;2.20;64.80;;;;;;5033264;28;20026;-60
2021/03/06 04:48:21;;;;;;;5.40;3.42;;;2.10;65.00;;;;;;5025492;28;20034;-60
2021/03/06 04:50:47;;;;;;;5.03;3.30;;;2.20;65.20;;;;;;5035826;28;20036;-59
2021/03/06 04:53:13;;;;;;;5.25;3.58;;;2.10;65.30;;;;;;5031866;28;20118;-60
2021/03/06 04:55:38;;;;;;;4.85;3.38;;;2.10;65.50;;;;;;5032536;28;20429;-59
2021/03/06 04:58:04;;;;;;;6.65;3.42;;;2.20;65.50;;;;;;5025872;28;20017;-60
2021/03/06 05:00:31;;;;;;;6.03;3.55;;;2.20;65.50;;;;;;5033033;28;20504;-60
2021/03/06 05:02:57;;;;;;;4.53;3.50;;;2.20;65.60;;;;;;5030691;28;20029;-60
2021/03/06 05:05:23;;;;;;;4.65;3.35;;;2.20;65.70;;;;;;5032148;28;20302;-60
2021/03/06 05:07:48;;;;;;;6.82;3.90;;;2.20;65.90;;;;;;5030435;28;20036;-60
2021/03/06 05:10:14;;;;;;;5.00;3.70;;;2.20;66.00;;;;;;5029929;28;20034;-59
2021/03/06 05:12:40;;;;;;;6.10;3.72;;;2.30;65.90;;;;;;5030720;28;20033;-60
2021/03/06 05:15:06;;;;;;;5.53;4.03;;;2.30;65.90;;;;;;5032950;28;20040;-60
2021/03/06 05:17:32;;;;;;;4.63;3.58;;;2.20;66.00;;;;;;5032608;28;20033;-60
2021/03/06 05:19:59;;;;;;;4.63;3.67;;;2.20;65.90;;;;;;5031524;28;20400;-59
2021/03/06 05:22:25;;;;;;;4.47;3.40;;;2.30;66.00;;;;;;5032834;28;20065;-60
2021/03/06 05:24:51;;;;;;;4.38;3.35;;;2.30;66.10;;;;;;5030784;28;20470;-59
2021/03/06 05:27:17;;;;;;;4.03;3.20;;;2.30;65.70;;;;;;5031646;28;20094;-59
2021/03/06 05:29:42;;;;;;;4.78;3.33;;;2.30;65.50;;;;;;5033764;28;20075;-60
2021/03/06 05:32:08;;;;;;;4.47;3.13;;;2.40;65.50;;;;;;5032691;28;20033;-60
2021/03/06 05:34:34;;;;;;;4.82;2.92;;;2.40;65.30;;;;;;5032399;28;20025;-60
2021/03/06 05:37:00;;;;;;;4.30;3.22;;;2.50;65.30;;;;;;5032711;28;20049;-60
2021/03/06 05:39:26;;;;;;;5.55;3.00;;;2.50;65.00;;;;;;5035051;28;20403;-60
2021/03/06 05:41:52;;;;;;;4.55;3.03;;;2.60;65.10;;;;;;5028708;28;20028;-60
2021/03/06 05:44:19;;;;;;;4.80;3.03;;;2.60;64.40;;;;;;5028333;28;20017;-58
2021/03/06 05:46:45;;;;;;;3.58;3.10;;;2.60;64.40;;;;;;5031946;28;20036;-60
2021/03/06 05:49:13;;;;;;;3.80;2.80;;;2.60;64.50;;;;;;5031899;28;20099;-60
2021/03/06 05:51:39;;;;;;;3.28;2.95;;;2.70;64.20;;;;;;5027804;28;20111;-60
2021/03/06 05:54:08;;;;;;;3.28;2.90;;;2.70;63.80;;;;;;5032008;28;20439;-59
2021/03/06 05:56:38;;;;;;;5.03;3.10;;;2.70;63.80;;;;;;5031734;28;20044;-59
2021/03/06 05:59:06;;;;;;;2.93;2.67;;;2.80;63.50;;;;;;5031946;28;20469;-59
2021/03/06 06:01:33;;;;;;;3.70;2.85;;;2.80;63.80;;;;;;5030964;28;20014;-61
2021/03/06 06:04:03;;;;;;;4.28;3.28;;;2.90;64.30;;;;;;5030573;28;20105;-61
2021/03/06 06:06:29;;;;;;;4.65;2.65;;;3.00;63.80;;;;;;5022908;28;20029;-61
2021/03/06 06:08:58;;;;;;;2.95;2.60;;;3.20;64.00;;;;;;5029729;28;20057;-59
2021/03/06 06:11:28;;;;;;;2.78;2.50;;;3.40;63.60;;;;;;5028207;28;20049;-60
2021/03/06 06:13:58;;;;;;;3.40;2.70;;;3.70;63.10;;;;;;5032084;28;20116;-61
2021/03/06 06:16:31;;;;;;;3.72;2.90;;;3.90;62.40;;;;;;5030828;28;20037;-60
2021/03/06 06:18:59;;;;;;;4.28;2.80;;;4.10;61.80;;;;;;5024969;28;20149;-60
2021/03/06 06:21:54;;;;;;;3.20;2.90;;;4.30;60.60;;;;;;5031607;28;20457;-60
2021/03/06 06:24:22;;;;;;;6.45;3.33;;;4.60;59.70;;;;;;5027570;28;20417;-61
2021/03/06 06:27:06;;;;;;;5.32;3.60;;;4.60;59.30;;;;;;5030951;28;20110;-58
2021/03/06 06:29:46;;;;;;;3.50;2.90;;;4.70;59.10;;;;;;5031372;28;20030;-58
2021/03/06 06:32:14;;;;;;;3.78;2.63;;;4.70;58.60;;;;;;5034016;28;20362;-60
2021/03/06 06:34:41;;;;;;;3.25;2.50;;;4.60;58.70;;;;;;5034777;28;20030;-59
2021/03/06 06:37:15;;;;;;;2.88;2.50;;;4.50;58.00;;;;;;5034386;28;20053;-61
2021/03/06 06:39:42;;;;;;;2.92;2.40;;;4.40;58.00;;;;;;5030639;28;20462;-60
2021/03/06 06:42:08;;;;;;;2.60;2.40;;;4.20;57.80;;;;;;5034400;28;20030;-60
2021/03/06 06:44:35;;;;;;;3.10;2.50;;;4.10;58.10;;;;;;5030300;28;20047;-61
2021/03/06 06:47:16;;;;;;;2.78;2.47;;;3.90;58.20;;;;;;5033624;28;20026;-61
2021/03/06 06:49:44;;;;;;;3.13;2.40;;;3.70;58.20;;;;;;5028620;28;20371;-60
2021/03/06 06:52:10;;;;;;;3.53;2.53;;;3.50;58.20;;;;;;5027456;28;20029;-61
2021/03/06 06:54:36;;;;;;;4.97;2.58;;;3.30;58.60;;;;;;5032167;28;20025;-60
2021/03/06 06:57:18;;;;;;;4.72;2.70;;;3.20;58.90;;;;;;5034146;28;20048;-59
2021/03/06 06:59:59;;;;;;;4.38;2.70;;;3.10;58.90;;;;;;5027229;28;20037;-60
2021/03/06 07:02:28;;;;;;;3.17;2.35;;;2.90;59.00;;;;;;5029454;28;20026;-60
2021/03/06 07:04:59;;;;;;;2.95;2.65;;;2.80;58.70;;;;;;5034335;28;20061;-59
2021/03/06 07:07:34;;;;;;;2.45;2.25;;;2.80;59.00;;;;;;5034502;28;20033;-61
2021/03/06 07:10:12;;;;;;;2.67;2.30;;;2.70;59.30;;;;;;5032127;28;20477;-61
2021/03/06 07:12:46;;;;;;;3.70;2.60;;;2.60;59.60;;;;;;5029439;28;20428;-60
2021/03/06 07:15:19;;;;;;;2.83;2.45;;;2.60;59.70;;;;;;5034647;28;20029;-60
2021/03/06 07:17:47;;;;;;;2.72;2.45;;;2.60;59.30;;;;;;5034191;28;20029;-61
2021/03/06 07:20:22;;;;;;;2.70;2.45;;;2.50;58.90;;;;;;5024372;28;20036;-61
2021/03/06 07:22:49;;;;;;;2.70;2.50;;;2.40;58.90;;;;;;5033950;28;20029;-61
2021/03/06 07:25:15;;;;;;;2.53;2.25;;;2.30;59.10;;;;;;5026462;28;20099;-59
2021/03/06 07:27:41;;;;;;;2.60;2.35;;;2.20;59.00;;;;;;5022292;28;20037;-60
2021/03/06 07:30:09;;;;;;;2.55;2.35;;;2.20;58.80;;;;;;5033869;28;20025;-59
2021/03/06 07:32:38;;;;;;;3.10;2.60;;;2.20;58.70;;;;;;5030346;28;20033;-58
2021/03/06 07:35:07;;;;;;;2.60;2.30;;;2.10;58.70;;;;;;5020158;28;20042;-59
2021/03/06 07:37:33;;;;;;;2.60;2.40;;;2.00;58.80;;;;;;5034098;28;20039;-59
2021/03/06 07:40:02;;;;;;;3.67;2.65;;;2.10;58.80;;;;;;5033712;28;20109;-59
2021/03/06 07:42:47;;;;;;;2.55;2.33;;;2.00;58.50;;;;;;5029574;28;20425;-60
2021/03/06 07:45:20;;;;;;;2.65;2.45;;;2.00;58.20;;;;;;5025720;28;20037;-60
2021/03/06 07:47:49;;;;;;;2.80;2.47;;;2.00;58.50;;;;;;5030555;28;20043;-59
2021/03/06 07:50:38;;;;;;;2.95;2.63;;;1.90;58.30;;;;;;5033387;28;20050;-60
2021/03/06 07:53:04;;;;;;;2.58;2.28;;;1.90;58.30;;;;;;5026988;28;20433;-60
2021/03/06 07:55:31;;;;;;;2.85;2.40;;;1.90;58.30;;;;;;5018715;28;20060;-60
2021/03/06 07:58:14;;;;;;;2.63;2.28;;;1.80;58.30;;;;;;5014524;28;20033;-60
2021/03/06 08:00:51;;;;;;;2.70;2.50;;;1.80;58.20;;;;;;5022767;28;20076;-60
2021/03/06 08:03:22;;;;;;;3.83;2.42;;;1.80;58.30;;;;;;5024469;28;20057;-60
2021/03/06 08:05:49;;;;;;;3.17;2.75;;;1.80;58.60;;;;;;5016297;28;20033;-59
2021/03/06 08:08:34;;;;;;;2.42;2.22;;;1.80;58.70;;;;;;5029709;28;20037;-60
2021/03/06 08:11:10;;;;;;;3.90;2.75;;;1.80;59.10;;;;;;5024262;28;20032;-59
2021/03/06 08:13:47;;;;;;;3.78;2.70;;;1.80;59.00;;;;;;5025982;28;20025;-60
2021/03/06 08:16:24;;;;;;;3.13;2.60;;;1.80;59.00;;;;;;5025271;28;20111;-60
2021/03/06 08:18:54;;;;;;;2.95;2.45;;;1.80;58.90;;;;;;5027362;28;20112;-60
2021/03/06 08:21:40;;;;;;;4.25;3.03;;;1.80;59.00;;;;;;5024135;28;20025;-59
2021/03/06 08:24:24;;;;;;;3.75;2.92;;;1.90;58.80;;;;;;5026924;28;20025;-60
2021/03/06 08:27:04;;;;;;;3.17;2.88;;;1.80;59.00;;;;;;5024992;28;20029;-60
2021/03/06 08:29:43;;;;;;;4.00;2.75;;;1.80;58.80;;;;;;5032753;28;20465;-60
2021/03/06 08:32:24;;;;;;;3.65;2.80;;;1.80;59.20;;;;;;5032144;28;20025;-59
2021/03/06 08:34:58;;;;;;;3.45;2.72;;;1.80;59.20;;;;;;5018676;28;20385;-60
2021/03/06 08:37:24;;;;;;;3.55;2.90;;;1.80;59.00;;;;;;5029477;28;20484;-61
2021/03/06 08:39:54;;;;;;;3.10;2.63;;;1.80;58.90;;;;;;5030379;28;20025;-60
2021/03/06 08:42:29;;;;;;;2.67;2.45;;;1.80;58.50;;;;;;5028073;28;20058;-60
2021/03/06 08:45:19;;;;;;;3.25;2.95;;;1.80;58.20;;;;;;5025508;28;20014;-60
2021/03/06 08:47:57;;;;;;;2.53;2.33;;;1.80;57.90;;;;;;5024517;28;20033;-61
2021/03/06 08:50:24;;;;;;;2.63;2.42;;;1.70;57.70;;;;;;5019219;28;20084;-60
2021/03/06 08:53:07;;;;;;;3.08;2.58;;;1.70;57.50;;;;;;5018125;28;20056;-60
2021/03/06 08:55:39;;;;;;;2.63;2.42;;;1.70;57.70;;;;;;5021622;28;20044;-60
2021/03/06 08:58:06;;;;;;;2.55;2.35;;;1.70;57.50;;;;;;5018824;28;20033;-61
2021/03/06 09:00:35;;;;;;;2.90;2.63;;;1.70;57.30;;;;;;5018108;28;20465;-60
2021/03/06 09:03:12;;;;;;;3.25;2.80;;;1.70;57.40;;;;;;5016984;28;20021;-62
2021/03/06 09:05:38;;;;;;;3.55;2.47;;;1.70;57.70;;;;;;5016576;28;20026;-60
2021/03/06 09:08:04;;;;;;;3.17;2.65;;;1.80;57.70;;;;;;5017837;28;20033;-60
2021/03/06 09:10:50;;;;;;;2.63;2.40;;;1.80;57.40;;;;;;5020280;28;20026;-60
2021/03/06 09:13:19;;;;;;;2.80;2.60;;;1.80;57.30;;;;;;5021426;28;20033;-59
2021/03/06 09:15:52;;;;;;;4.05;2.72;;;1.80;57.80;;;;;;5027225;28;20433;-59
2021/03/06 09:18:24;;;;;;;2.92;2.60;;;1.90;57.80;;;;;;5019917;28;20042;-60
2021/03/06 09:20:54;;;;;;;3.83;2.80;;;1.90;58.00;;;;;;5024669;28;20025;-59
2021/03/06 09:23:29;;;;;;;4.97;2.85;;;2.00;58.10;;;;;;5020234;28;20080;-58
2021/03/06 09:25:56;;;;;;;4.03;2.50;;;2.00;57.60;;;;;;5026692;28;20053;-60
2021/03/06 09:28:27;;;;;;;3.58;3.10;;;2.00;57.50;;;;;;5028787;28;20534;-60
2021/03/06 09:30:56;;;;;;;6.93;3.20;;;2.00;57.60;;;;;;5030925;28;20033;-61
2021/03/06 09:33:25;;;;;;;5.28;3.40;;;2.00;57.40;;;;;;5022140;28;20033;-62
2021/03/06 09:35:56;;;;;;;4.95;2.80;;;2.00;58.10;;;;;;5027163;28;20104;-60
2021/03/06 09:38:21;;;;;;;3.20;2.60;;;2.10;57.20;;;;;;5027270;28;20088;-59
2021/03/06 09:40:47;;;;;;;3.55;2.47;;;2.00;57.10;;;;;;5026566;28;20029;-59
2021/03/06 09:43:15;;;;;;;2.60;2.40;;;2.10;57.30;;;;;;5028622;28;20033;-60
2021/03/06 09:45:41;;;;;;;3.40;2.35;;;2.10;57.30;;;;;;5025540;28;20033;-59
2021/03/06 09:48:15;;;;;;;2.83;2.50;;;2.10;57.30;;;;;;5026863;28;20159;-59
2021/03/06 09:50:43;;;;;;;2.60;2.40;;;2.10;56.90;;;;;;5026584;28;20034;-57
2021/03/06 09:53:13;;;;;;;2.97;2.45;;;2.10;56.70;;;;;;5016485;28;20034;-60
2021/03/06 09:55:39;;;;;;;2.90;2.47;;;2.10;56.70;;;;;;5016103;28;20033;-60
2021/03/06 09:58:19;;;;;;;2.33;2.10;;;2.10;56.80;;;;;;5027967;28;20430;-64
2021/03/06 10:00:44;;;;;;;2.72;2.45;;;2.10;56.50;;;;;;5022551;28;20025;-60
2021/03/06 10:03:10;;;;;;;3.85;2.45;;;2.10;56.70;;;;;;5023582;28;20030;-60
2021/03/06 10:05:36;;;;;;;3.00;2.30;;;2.10;56.70;;;;;;5024869;28;20040;-60
2021/03/06 10:08:02;;;;;;;2.25;2.05;;;2.20;56.50;;;;;;5024410;28;20367;-61
2021/03/06 10:10:28;;;;;;;2.33;2.13;;;2.20;56.60;;;;;;5018814;28;20498;-59
2021/03/06 10:12:55;;;;;;;2.53;2.33;;;2.20;57.30;;;;;;5014589;28;20103;-60
2021/03/06 10:15:21;;;;;;;2.47;2.20;;;2.30;56.70;;;;;;5021316;28;20036;-60
2021/03/06 10:17:47;;;;;;;2.30;2.10;;;2.30;56.60;;;;;;5022993;28;20021;-59
2021/03/06 10:20:13;;;;;;;2.10;2.00;;;2.40;56.40;;;;;;5028318;28;20128;-59
2021/03/06 10:22:49;;;;;;;2.40;2.20;;;2.40;56.30;;;;;;5024974;28;20025;-60
2021/03/06 10:25:27;;;;;;;2.50;2.30;;;2.40;56.30;;;;;;5026850;28;20038;-60
2021/03/06 10:27:53;;;;;;;2.08;1.95;;;2.40;56.10;;;;;;5017922;28;20038;-60
2021/03/06 10:30:19;;;;;;;2.28;2.10;;;2.40;55.90;;;;;;5017102;28;20393;-58
2021/03/06 10:32:50;;;;;;;2.45;2.20;;;2.50;55.60;;;;;;5017180;28;20033;-60
2021/03/06 10:35:40;;;;;;;2.20;2.00;;;2.50;55.40;;;;;;5017850;28;20037;-60
2021/03/06 10:38:08;;;;;;;2.38;2.10;;;2.40;55.90;;;;;;5021704;28;20080;-58
2021/03/06 10:40:47;;;;;;;2.50;2.30;;;2.40;55.10;;;;;;5017429;28;20068;-61
2021/03/06 10:43:25;;;;;;;2.60;2.40;;;2.50;55.20;;;;;;5019670;28;20029;-58
2021/03/06 10:45:51;;;;;;;2.30;2.10;;;2.50;55.00;;;;;;5034388;28;20025;-59
2021/03/06 10:48:28;;;;;;;2.50;2.30;;;2.50;54.90;;;;;;5021138;28;20033;-60
2021/03/06 10:50:55;;;;;;;2.17;2.05;;;2.50;54.50;;;;;;5026186;28;20022;-59
2021/03/06 10:53:23;;;;;;;2.33;2.13;;;2.50;54.70;;;;;;5026099;28;20030;-60
2021/03/06 10:55:50;;;;;;;2.72;2.13;;;2.60;54.40;;;;;;5025409;28;20065;-61
2021/03/06 10:58:17;;;;;;;2.90;2.70;;;2.60;54.10;;;;;;5025935;28;20018;-60
2021/03/06 11:00:46;;;;;;;2.33;2.13;;;2.60;54.30;;;;;;5030564;28;20032;-60
2021/03/06 11:03:13;;;;;;;2.15;1.98;;;2.60;54.60;;;;;;5027223;28;20026;-59
2021/03/06 11:05:40;;;;;;;2.15;2.05;;;2.60;54.60;;;;;;5034044;28;20037;-58
2021/03/06 11:08:22;;;;;;;2.28;2.15;;;2.60;54.60;;;;;;5018840;28;20033;-60
2021/03/06 11:10:50;;;;;;;2.70;2.50;;;2.70;54.40;;;;;;5026915;28;20091;-60
2021/03/06 11:13:16;;;;;;;2.30;2.10;;;2.70;54.60;;;;;;5029868;28;20057;-60
2021/03/06 11:15:49;;;;;;;2.53;2.10;;;2.70;54.50;;;;;;5033099;28;20404;-60
2021/03/06 11:18:15;;;;;;;2.83;2.30;;;2.80;54.70;;;;;;5019888;28;20022;-61
2021/03/06 11:20:42;;;;;;;2.65;2.25;;;2.80;54.40;;;;;;5033258;28;20021;-61
2021/03/06 11:23:08;;;;;;;2.55;2.35;;;2.80;54.20;;;;;;5034023;28;20421;-60
2021/03/06 11:25:35;;;;;;;2.70;2.50;;;2.90;54.30;;;;;;5026174;28;20101;-60
2021/03/06 11:28:05;;;;;;;2.60;2.40;;;2.90;54.60;;;;;;5029657;28;20018;-59
2021/03/06 11:30:41;;;;;;;2.30;2.10;;;2.90;54.10;;;;;;5033525;28;20430;-60
2021/03/06 11:33:08;;;;;;;1.92;1.83;;;2.90;54.00;;;;;;5032331;28;20485;-59
2021/03/06 11:35:35;;;;;;;2.00;1.90;;;2.90;53.70;;;;;;5034324;28;20067;-60
2021/03/06 11:38:01;;;;;;;2.10;2.00;;;2.90;53.80;;;;;;5031662;28;20032;-60
2021/03/06 11:40:31;;;;;;;2.25;2.00;;;3.00;53.90;;;;;;5033058;28;20029;-60
2021/03/06 11:42:57;;;;;;;2.55;2.17;;;3.00;53.70;;;;;;5029405;28;20026;-60
2021/03/06 11:45:23;;;;;;;2.35;2.15;;;3.00;53.50;;;;;;5025373;28;20493;-60
2021/03/06 11:47:50;;;;;;;2.30;2.10;;;3.10;53.40;;;;;;5027871;28;20072;-60
2021/03/06 11:50:18;;;;;;;2.30;2.10;;;3.00;53.20;;;;;;5028139;28;20053;-59
2021/03/06 11:52:44;;;;;;;1.65;1.60;;;3.00;53.00;;;;;;5026246;28;20025;-60
2021/03/06 11:55:12;;;;;;;2.13;2.03;;;3.10;53.30;;;;;;5029963;28;20041;-59
2021/03/06 11:57:37;;;;;;;2.22;2.00;;;3.10;52.90;;;;;;5031567;28;20024;-61
2021/03/06 12:00:08;;;;;;;1.83;1.73;;;3.10;52.50;;;;;;5031101;28;20025;-60
2021/03/06 12:02:34;;;;;;;1.73;1.63;;;3.10;52.60;;;;;;5029806;28;20034;-61
2021/03/06 12:05:00;;;;;;;1.77;1.67;;;3.10;52.30;;;;;;5023213;28;20033;-60
2021/03/06 12:07:25;;;;;;;1.67;1.58;;;3.10;52.00;;;;;;5029224;28;20023;-61
2021/03/06 12:09:51;;;;;;;2.20;1.90;;;3.10;52.00;;;;;;5030414;28;20116;-60
2021/03/06 12:12:17;;;;;;;2.22;2.03;;;3.10;51.80;;;;;;5024163;28;20084;-58
2021/03/06 12:14:43;;;;;;;1.90;1.80;;;3.10;51.30;;;;;;5027614;28;20025;-61
2021/03/06 12:17:09;;;;;;;1.85;1.75;;;3.10;51.40;;;;;;5020052;28;20473;-60
2021/03/06 12:19:34;;;;;;;1.65;1.63;;;3.10;51.60;;;;;;5025399;28;20111;-59
2021/03/06 12:22:00;;;;;;;2.45;1.90;;;3.20;51.40;;;;;;5028504;28;20033;-60
2021/03/06 12:24:26;;;;;;;1.70;1.60;;;3.20;51.60;;;;;;5028552;28;20099;-60
2021/03/06 12:26:51;;;;;;;1.88;1.77;;;3.20;51.50;;;;;;5031184;28;20450;-61
2021/03/06 12:29:18;;;;;;;2.00;1.90;;;3.20;51.60;;;;;;5028712;28;20083;-61
2021/03/06 12:31:44;;;;;;;2.03;1.92;;;3.20;51.10;;;;;;5031239;28;20049;-60
2021/03/06 12:34:10;;;;;;;1.90;1.80;;;3.20;51.30;;;;;;5030720;28;20037;-60
2021/03/06 12:36:36;;;;;;;1.90;1.80;;;3.30;51.30;;;;;;5026504;28;20029;-60
2021/03/06 12:39:04;;;;;;;1.95;1.85;;;3.30;51.30;;;;;;5027656;28;20017;-59
2021/03/06 12:41:29;;;;;;;2.40;2.20;;;3.30;51.20;;;;;;5029949;28;20017;-58
2021/03/06 12:43:55;;;;;;;2.08;1.90;;;3.40;51.60;;;;;;5026908;28;20022;-60
2021/03/06 12:46:22;;;;;;;2.20;2.00;;;3.40;52.00;;;;;;5025764;28;20037;-61
2021/03/06 12:48:49;;;;;;;1.92;1.73;;;3.40;51.60;;;;;;5019294;28;20043;-61
2021/03/06 12:51:15;;;;;;;2.00;1.90;;;3.40;51.70;;;;;;5020127;28;20108;-61
2021/03/06 12:53:41;;;;;;;1.77;1.67;;;3.40;51.90;;;;;;5026416;28;20116;-60
2021/03/06 12:56:07;;;;;;;1.70;1.67;;;3.50;51.30;;;;;;5021692;28;20022;-61
2021/03/06 12:58:34;;;;;;;2.13;1.90;;;3.50;51.50;;;;;;5024352;28;20367;-59
2021/03/06 13:00:59;;;;;;;2.00;1.90;;;3.50;51.30;;;;;;5022908;28;20013;-60
2021/03/06 13:03:26;;;;;;;2.13;2.00;;;3.50;51.30;;;;;;5029222;28;20071;-60
2021/03/06 13:05:51;;;;;;;2.00;1.90;;;3.50;51.20;;;;;;5025254;28;20048;-60
2021/03/06 13:08:17;;;;;;;1.90;1.80;;;3.50;51.10;;;;;;5017641;28;20061;-59
2021/03/06 13:10:43;;;;;;;2.58;1.80;;;3.50;50.80;;;;;;5023468;28;20033;-59